sensor_id;sensor_type;location;lat;lon;timestamp;P1;durP1;ratioP1;P2;durP2;ratioP2
17127;SDS011;8679;50.842;4.322;2022-08-19T00:01:27;7.47;;;4.82;;
17127;SDS011;8679;50.842;4.322;2022-08-19T00:03:54;7.88;;;5.05;;
17127;SDS011;8679;50.842;4.322;2022-08-19T00:06:21;7.25;;;5.13;;
17127;SDS011;8679;50.842;4.322;2022-08-19T00:08:47;10.50;;;5.75;;
17127;SDS011;8679;50.842;4.322;2022-08-19T00:11:12;11.70;;;6.20;;
17127;SDS011;8679;50.842;4.322;2022-08-19T00:13:38;12.68;;;6.45;;
17127;SDS011;8679;50.842;4.322;2022-08-19T00:16:05;11.88;;;6.60;;
17127;SDS011;8679;50.842;4.322;2022-08-19T00:18:31;12.18;;;7.15;;
17127;SDS011;8679;50.842;4.322;2022-08-19T00:20:58;12.48;;;7.57;;
17127;SDS011;8679;50.842;4.322;2022-08-19T00:23:24;15.93;;;7.70;;
17127;SDS011;8679;50.842;4.322;2022-08-19T00:25:51;15.50;;;8.02;;
17127;SDS011;8679;50.842;4.322;2022-08-19T00:28:17;16.10;;;8.63;;
17127;SDS011;8679;50.842;4.322;2022-08-19T00:30:43;14.90;;;7.53;;
17127;SDS011;8679;50.842;4.322;2022-08-19T00:33:10;17.15;;;8.95;;
17127;SDS011;8679;50.842;4.322;2022-08-19T00:35:36;17.70;;;8.77;;
17127;SDS011;8679;50.842;4.322;2022-08-19T00:38:03;16.95;;;10.10;;
17127;SDS011;8679;50.842;4.322;2022-08-19T00:40:30;15.45;;;8.18;;
17127;SDS011;8679;50.842;4.322;2022-08-19T00:42:56;23.42;;;10.38;;
17127;SDS011;8679;50.842;4.322;2022-08-19T00:45:23;13.70;;;7.60;;
17127;SDS011;8679;50.842;4.322;2022-08-19T00:47:55;15.70;;;8.40;;
17127;SDS011;8679;50.842;4.322;2022-08-19T00:50:21;21.10;;;9.32;;
17127;SDS011;8679;50.842;4.322;2022-08-19T00:52:49;17.20;;;9.02;;
17127;SDS011;8679;50.842;4.322;2022-08-19T00:55:17;19.27;;;9.48;;
17127;SDS011;8679;50.842;4.322;2022-08-19T00:57:48;16.45;;;8.68;;
17127;SDS011;8679;50.842;4.322;2022-08-19T01:00:20;18.40;;;9.05;;
17127;SDS011;8679;50.842;4.322;2022-08-19T01:02:46;22.02;;;9.90;;
17127;SDS011;8679;50.842;4.322;2022-08-19T01:05:16;15.13;;;8.23;;
17127;SDS011;8679;50.842;4.322;2022-08-19T01:07:45;14.77;;;8.00;;
17127;SDS011;8679;50.842;4.322;2022-08-19T01:10:14;16.77;;;7.72;;
17127;SDS011;8679;50.842;4.322;2022-08-19T01:12:43;18.13;;;9.00;;
17127;SDS011;8679;50.842;4.322;2022-08-19T01:15:11;15.05;;;8.57;;
17127;SDS011;8679;50.842;4.322;2022-08-19T01:17:41;14.63;;;8.15;;
17127;SDS011;8679;50.842;4.322;2022-08-19T01:20:13;17.48;;;8.65;;
17127;SDS011;8679;50.842;4.322;2022-08-19T01:22:44;16.38;;;8.77;;
17127;SDS011;8679;50.842;4.322;2022-08-19T01:25:13;15.68;;;8.07;;
17127;SDS011;8679;50.842;4.322;2022-08-19T01:27:41;20.70;;;10.43;;
17127;SDS011;8679;50.842;4.322;2022-08-19T01:30:12;17.98;;;8.73;;
17127;SDS011;8679;50.842;4.322;2022-08-19T01:32:39;15.85;;;8.55;;
17127;SDS011;8679;50.842;4.322;2022-08-19T01:35:05;19.00;;;9.52;;
17127;SDS011;8679;50.842;4.322;2022-08-19T01:37:41;15.73;;;7.60;;
17127;SDS011;8679;50.842;4.322;2022-08-19T01:40:09;22.20;;;8.82;;
17127;SDS011;8679;50.842;4.322;2022-08-19T01:42:35;18.52;;;9.05;;
17127;SDS011;8679;50.842;4.322;2022-08-19T01:45:00;15.60;;;7.57;;
17127;SDS011;8679;50.842;4.322;2022-08-19T01:47:26;13.45;;;7.38;;
17127;SDS011;8679;50.842;4.322;2022-08-19T01:49:52;16.10;;;8.05;;
17127;SDS011;8679;50.842;4.322;2022-08-19T01:52:19;13.65;;;7.28;;
17127;SDS011;8679;50.842;4.322;2022-08-19T01:54:44;15.07;;;8.75;;
17127;SDS011;8679;50.842;4.322;2022-08-19T01:57:10;12.75;;;7.15;;
17127;SDS011;8679;50.842;4.322;2022-08-19T01:59:39;15.13;;;8.05;;
17127;SDS011;8679;50.842;4.322;2022-08-19T02:02:06;13.75;;;7.53;;
17127;SDS011;8679;50.842;4.322;2022-08-19T02:04:35;13.00;;;7.43;;
17127;SDS011;8679;50.842;4.322;2022-08-19T02:07:03;12.85;;;7.53;;
17127;SDS011;8679;50.842;4.322;2022-08-19T02:09:30;12.43;;;6.80;;
17127;SDS011;8679;50.842;4.322;2022-08-19T02:11:56;11.95;;;6.47;;
17127;SDS011;8679;50.842;4.322;2022-08-19T02:14:22;13.27;;;7.20;;
17127;SDS011;8679;50.842;4.322;2022-08-19T02:16:48;13.32;;;6.53;;
17127;SDS011;8679;50.842;4.322;2022-08-19T02:19:13;13.10;;;7.43;;
17127;SDS011;8679;50.842;4.322;2022-08-19T02:21:39;18.23;;;8.65;;
17127;SDS011;8679;50.842;4.322;2022-08-19T02:24:05;15.27;;;7.07;;
17127;SDS011;8679;50.842;4.322;2022-08-19T02:26:31;14.35;;;7.65;;
17127;SDS011;8679;50.842;4.322;2022-08-19T02:28:57;12.23;;;7.10;;
17127;SDS011;8679;50.842;4.322;2022-08-19T02:31:24;11.05;;;6.22;;
17127;SDS011;8679;50.842;4.322;2022-08-19T02:33:50;11.95;;;7.00;;
17127;SDS011;8679;50.842;4.322;2022-08-19T02:36:17;13.02;;;7.35;;
17127;SDS011;8679;50.842;4.322;2022-08-19T02:38:43;12.30;;;6.95;;
17127;SDS011;8679;50.842;4.322;2022-08-19T02:41:15;15.52;;;7.43;;
17127;SDS011;8679;50.842;4.322;2022-08-19T02:43:49;12.15;;;6.05;;
17127;SDS011;8679;50.842;4.322;2022-08-19T02:48:49;14.32;;;7.18;;
17127;SDS011;8679;50.842;4.322;2022-08-19T02:51:20;12.85;;;6.97;;
17127;SDS011;8679;50.842;4.322;2022-08-19T02:53:49;10.52;;;6.13;;
17127;SDS011;8679;50.842;4.322;2022-08-19T02:56:15;14.80;;;6.70;;
17127;SDS011;8679;50.842;4.322;2022-08-19T02:58:42;11.88;;;6.40;;
17127;SDS011;8679;50.842;4.322;2022-08-19T03:01:08;11.48;;;6.93;;
17127;SDS011;8679;50.842;4.322;2022-08-19T03:03:35;10.30;;;5.55;;
17127;SDS011;8679;50.842;4.322;2022-08-19T03:06:11;12.20;;;5.47;;
17127;SDS011;8679;50.842;4.322;2022-08-19T03:08:40;12.10;;;6.10;;
17127;SDS011;8679;50.842;4.322;2022-08-19T03:11:21;11.40;;;6.32;;
17127;SDS011;8679;50.842;4.322;2022-08-19T03:13:49;11.73;;;5.78;;
17127;SDS011;8679;50.842;4.322;2022-08-19T03:16:16;9.60;;;5.20;;
17127;SDS011;8679;50.842;4.322;2022-08-19T03:18:42;11.07;;;5.78;;
17127;SDS011;8679;50.842;4.322;2022-08-19T03:21:08;10.32;;;5.78;;
17127;SDS011;8679;50.842;4.322;2022-08-19T03:23:35;10.00;;;5.22;;
17127;SDS011;8679;50.842;4.322;2022-08-19T03:26:03;10.43;;;5.57;;
17127;SDS011;8679;50.842;4.322;2022-08-19T03:28:31;9.43;;;5.45;;
17127;SDS011;8679;50.842;4.322;2022-08-19T03:30:58;15.18;;;7.53;;
17127;SDS011;8679;50.842;4.322;2022-08-19T03:33:29;11.05;;;6.15;;
17127;SDS011;8679;50.842;4.322;2022-08-19T03:36:00;7.70;;;5.47;;
17127;SDS011;8679;50.842;4.322;2022-08-19T03:38:27;12.77;;;6.13;;
17127;SDS011;8679;50.842;4.322;2022-08-19T03:40:53;12.20;;;6.20;;
17127;SDS011;8679;50.842;4.322;2022-08-19T03:43:19;13.75;;;5.75;;
17127;SDS011;8679;50.842;4.322;2022-08-19T03:45:44;10.98;;;5.68;;
17127;SDS011;8679;50.842;4.322;2022-08-19T03:48:10;11.32;;;6.07;;
17127;SDS011;8679;50.842;4.322;2022-08-19T03:50:39;9.93;;;5.20;;
17127;SDS011;8679;50.842;4.322;2022-08-19T03:53:05;14.57;;;5.65;;
17127;SDS011;8679;50.842;4.322;2022-08-19T03:55:32;9.50;;;5.53;;
17127;SDS011;8679;50.842;4.322;2022-08-19T03:57:57;13.13;;;7.07;;
17127;SDS011;8679;50.842;4.322;2022-08-19T04:00:24;10.75;;;5.32;;
17127;SDS011;8679;50.842;4.322;2022-08-19T04:02:49;11.60;;;5.93;;
17127;SDS011;8679;50.842;4.322;2022-08-19T04:05:15;11.77;;;6.07;;
17127;SDS011;8679;50.842;4.322;2022-08-19T04:07:41;12.70;;;5.72;;
17127;SDS011;8679;50.842;4.322;2022-08-19T04:10:07;11.15;;;6.18;;
17127;SDS011;8679;50.842;4.322;2022-08-19T04:12:33;10.40;;;5.00;;
17127;SDS011;8679;50.842;4.322;2022-08-19T04:14:58;9.93;;;5.68;;
17127;SDS011;8679;50.842;4.322;2022-08-19T04:17:24;15.93;;;6.85;;
17127;SDS011;8679;50.842;4.322;2022-08-19T04:19:50;11.07;;;5.78;;
17127;SDS011;8679;50.842;4.322;2022-08-19T04:22:16;10.60;;;5.80;;
17127;SDS011;8679;50.842;4.322;2022-08-19T04:24:43;14.32;;;6.75;;
17127;SDS011;8679;50.842;4.322;2022-08-19T04:27:10;13.23;;;5.47;;
17127;SDS011;8679;50.842;4.322;2022-08-19T04:29:35;10.23;;;5.25;;
17127;SDS011;8679;50.842;4.322;2022-08-19T04:32:04;9.20;;;6.25;;
17127;SDS011;8679;50.842;4.322;2022-08-19T04:34:30;8.77;;;5.28;;
17127;SDS011;8679;50.842;4.322;2022-08-19T04:36:56;8.15;;;5.28;;
17127;SDS011;8679;50.842;4.322;2022-08-19T04:39:25;13.68;;;6.22;;
17127;SDS011;8679;50.842;4.322;2022-08-19T04:42:12;11.57;;;5.50;;
17127;SDS011;8679;50.842;4.322;2022-08-19T04:44:57;9.93;;;5.65;;
17127;SDS011;8679;50.842;4.322;2022-08-19T04:47:23;8.50;;;4.97;;
17127;SDS011;8679;50.842;4.322;2022-08-19T04:49:49;10.48;;;5.45;;
17127;SDS011;8679;50.842;4.322;2022-08-19T04:52:15;12.30;;;5.40;;
17127;SDS011;8679;50.842;4.322;2022-08-19T04:54:41;10.05;;;5.05;;
17127;SDS011;8679;50.842;4.322;2022-08-19T04:57:07;11.25;;;5.05;;
17127;SDS011;8679;50.842;4.322;2022-08-19T04:59:34;9.07;;;4.60;;
17127;SDS011;8679;50.842;4.322;2022-08-19T05:02:02;9.38;;;5.10;;
17127;SDS011;8679;50.842;4.322;2022-08-19T05:04:28;9.02;;;4.90;;
17127;SDS011;8679;50.842;4.322;2022-08-19T05:06:55;7.35;;;4.50;;
17127;SDS011;8679;50.842;4.322;2022-08-19T05:09:21;9.52;;;4.93;;
17127;SDS011;8679;50.842;4.322;2022-08-19T05:11:47;12.70;;;4.32;;
17127;SDS011;8679;50.842;4.322;2022-08-19T05:14:15;9.75;;;4.72;;
17127;SDS011;8679;50.842;4.322;2022-08-19T05:16:41;7.28;;;4.50;;
17127;SDS011;8679;50.842;4.322;2022-08-19T05:19:07;10.63;;;5.25;;
17127;SDS011;8679;50.842;4.322;2022-08-19T05:21:51;8.65;;;5.22;;
17127;SDS011;8679;50.842;4.322;2022-08-19T05:24:37;13.40;;;5.22;;
17127;SDS011;8679;50.842;4.322;2022-08-19T05:27:02;12.63;;;6.15;;
17127;SDS011;8679;50.842;4.322;2022-08-19T05:29:31;9.15;;;4.68;;
17127;SDS011;8679;50.842;4.322;2022-08-19T05:31:59;11.48;;;5.13;;
17127;SDS011;8679;50.842;4.322;2022-08-19T05:34:26;8.38;;;4.55;;
17127;SDS011;8679;50.842;4.322;2022-08-19T05:36:53;13.77;;;6.45;;
17127;SDS011;8679;50.842;4.322;2022-08-19T05:39:23;11.90;;;6.03;;
17127;SDS011;8679;50.842;4.322;2022-08-19T05:41:56;11.27;;;5.70;;
17127;SDS011;8679;50.842;4.322;2022-08-19T05:44:24;11.77;;;4.78;;
17127;SDS011;8679;50.842;4.322;2022-08-19T05:46:51;11.82;;;5.50;;
17127;SDS011;8679;50.842;4.322;2022-08-19T05:49:18;9.85;;;5.35;;
17127;SDS011;8679;50.842;4.322;2022-08-19T05:51:45;9.35;;;4.90;;
17127;SDS011;8679;50.842;4.322;2022-08-19T05:54:11;10.50;;;4.88;;
17127;SDS011;8679;50.842;4.322;2022-08-19T05:56:39;10.05;;;4.47;;
17127;SDS011;8679;50.842;4.322;2022-08-19T05:59:06;6.90;;;3.88;;
17127;SDS011;8679;50.842;4.322;2022-08-19T06:01:34;11.15;;;4.45;;
17127;SDS011;8679;50.842;4.322;2022-08-19T06:04:01;8.13;;;4.38;;
17127;SDS011;8679;50.842;4.322;2022-08-19T06:06:28;6.30;;;3.95;;
17127;SDS011;8679;50.842;4.322;2022-08-19T06:08:53;8.98;;;3.88;;
17127;SDS011;8679;50.842;4.322;2022-08-19T06:11:36;11.95;;;4.47;;
17127;SDS011;8679;50.842;4.322;2022-08-19T06:14:09;7.70;;;4.32;;
17127;SDS011;8679;50.842;4.322;2022-08-19T06:16:38;13.55;;;4.78;;
17127;SDS011;8679;50.842;4.322;2022-08-19T06:19:06;6.68;;;3.88;;
17127;SDS011;8679;50.842;4.322;2022-08-19T06:21:34;9.60;;;3.28;;
17127;SDS011;8679;50.842;4.322;2022-08-19T06:24:02;7.00;;;3.95;;
17127;SDS011;8679;50.842;4.322;2022-08-19T06:26:30;5.80;;;3.17;;
17127;SDS011;8679;50.842;4.322;2022-08-19T06:28:56;5.65;;;2.63;;
17127;SDS011;8679;50.842;4.322;2022-08-19T06:31:26;4.78;;;2.78;;
17127;SDS011;8679;50.842;4.322;2022-08-19T06:33:52;6.68;;;2.60;;
17127;SDS011;8679;50.842;4.322;2022-08-19T06:36:19;5.30;;;3.05;;
17127;SDS011;8679;50.842;4.322;2022-08-19T06:38:46;4.60;;;2.60;;
17127;SDS011;8679;50.842;4.322;2022-08-19T06:41:12;6.40;;;3.22;;
17127;SDS011;8679;50.842;4.322;2022-08-19T06:43:38;4.60;;;2.75;;
17127;SDS011;8679;50.842;4.322;2022-08-19T06:46:09;5.95;;;2.63;;
17127;SDS011;8679;50.842;4.322;2022-08-19T06:48:37;5.40;;;3.33;;
17127;SDS011;8679;50.842;4.322;2022-08-19T06:51:02;6.13;;;2.88;;
17127;SDS011;8679;50.842;4.322;2022-08-19T06:53:31;3.97;;;2.47;;
17127;SDS011;8679;50.842;4.322;2022-08-19T06:55:57;4.55;;;2.90;;
17127;SDS011;8679;50.842;4.322;2022-08-19T06:58:27;3.30;;;2.28;;
17127;SDS011;8679;50.842;4.322;2022-08-19T07:01:02;6.88;;;2.80;;
17127;SDS011;8679;50.842;4.322;2022-08-19T07:03:30;4.28;;;2.53;;
17127;SDS011;8679;50.842;4.322;2022-08-19T07:05:58;5.05;;;2.63;;
17127;SDS011;8679;50.842;4.322;2022-08-19T07:08:28;4.05;;;2.88;;
17127;SDS011;8679;50.842;4.322;2022-08-19T07:10:54;3.40;;;1.88;;
17127;SDS011;8679;50.842;4.322;2022-08-19T07:13:20;4.68;;;2.22;;
17127;SDS011;8679;50.842;4.322;2022-08-19T07:15:47;4.43;;;2.70;;
17127;SDS011;8679;50.842;4.322;2022-08-19T07:18:14;3.95;;;2.30;;
17127;SDS011;8679;50.842;4.322;2022-08-19T07:20:45;5.35;;;2.50;;
17127;SDS011;8679;50.842;4.322;2022-08-19T07:23:11;4.43;;;2.28;;
17127;SDS011;8679;50.842;4.322;2022-08-19T07:25:37;4.78;;;3.15;;
17127;SDS011;8679;50.842;4.322;2022-08-19T07:28:04;6.90;;;2.50;;
17127;SDS011;8679;50.842;4.322;2022-08-19T07:30:31;3.70;;;1.98;;
17127;SDS011;8679;50.842;4.322;2022-08-19T07:32:57;3.85;;;2.00;;
17127;SDS011;8679;50.842;4.322;2022-08-19T07:35:23;5.70;;;1.95;;
17127;SDS011;8679;50.842;4.322;2022-08-19T07:37:50;4.28;;;2.50;;
17127;SDS011;8679;50.842;4.322;2022-08-19T07:40:15;3.38;;;1.92;;
17127;SDS011;8679;50.842;4.322;2022-08-19T07:42:41;5.75;;;2.47;;
17127;SDS011;8679;50.842;4.322;2022-08-19T07:45:08;4.00;;;2.45;;
17127;SDS011;8679;50.842;4.322;2022-08-19T07:47:35;4.80;;;2.53;;
17127;SDS011;8679;50.842;4.322;2022-08-19T07:50:01;3.95;;;2.13;;
17127;SDS011;8679;50.842;4.322;2022-08-19T07:52:29;5.45;;;2.20;;
17127;SDS011;8679;50.842;4.322;2022-08-19T07:54:55;2.97;;;2.20;;
17127;SDS011;8679;50.842;4.322;2022-08-19T07:57:20;8.82;;;2.33;;
17127;SDS011;8679;50.842;4.322;2022-08-19T07:59:46;5.03;;;2.33;;
17127;SDS011;8679;50.842;4.322;2022-08-19T08:02:12;2.55;;;1.90;;
17127;SDS011;8679;50.842;4.322;2022-08-19T08:04:38;4.10;;;2.15;;
17127;SDS011;8679;50.842;4.322;2022-08-19T08:07:23;5.57;;;2.60;;
17127;SDS011;8679;50.842;4.322;2022-08-19T08:10:07;3.45;;;1.88;;
17127;SDS011;8679;50.842;4.322;2022-08-19T08:12:35;3.90;;;2.00;;
17127;SDS011;8679;50.842;4.322;2022-08-19T08:15:06;4.35;;;2.20;;
17127;SDS011;8679;50.842;4.322;2022-08-19T08:17:35;6.80;;;2.97;;
17127;SDS011;8679;50.842;4.322;2022-08-19T08:20:02;5.88;;;2.35;;
17127;SDS011;8679;50.842;4.322;2022-08-19T08:22:32;6.20;;;2.30;;
17127;SDS011;8679;50.842;4.322;2022-08-19T08:25:18;5.05;;;1.98;;
17127;SDS011;8679;50.842;4.322;2022-08-19T08:27:46;3.63;;;1.95;;
17127;SDS011;8679;50.842;4.322;2022-08-19T08:30:30;3.28;;;2.15;;
17127;SDS011;8679;50.842;4.322;2022-08-19T08:32:57;4.10;;;2.30;;
17127;SDS011;8679;50.842;4.322;2022-08-19T08:35:23;3.63;;;2.03;;
17127;SDS011;8679;50.842;4.322;2022-08-19T08:37:50;3.45;;;2.00;;
17127;SDS011;8679;50.842;4.322;2022-08-19T08:48:40;4.68;;;1.48;;
17127;SDS011;8679;50.842;4.322;2022-08-19T08:51:25;2.42;;;1.60;;
17127;SDS011;8679;50.842;4.322;2022-08-19T08:53:58;3.22;;;1.88;;
17127;SDS011;8679;50.842;4.322;2022-08-19T08:56:25;2.33;;;1.65;;
17127;SDS011;8679;50.842;4.322;2022-08-19T08:59:07;2.90;;;2.00;;
17127;SDS011;8679;50.842;4.322;2022-08-19T09:01:42;2.30;;;1.55;;
17127;SDS011;8679;50.842;4.322;2022-08-19T09:04:08;2.80;;;1.30;;
17127;SDS011;8679;50.842;4.322;2022-08-19T09:15:03;2.33;;;1.50;;
17127;SDS011;8679;50.842;4.322;2022-08-19T09:17:32;1.98;;;1.13;;
17127;SDS011;8679;50.842;4.322;2022-08-19T09:22:45;2.25;;;1.38;;
17127;SDS011;8679;50.842;4.322;2022-08-19T09:25:13;3.78;;;1.30;;
17127;SDS011;8679;50.842;4.322;2022-08-19T09:27:41;2.75;;;1.52;;
17127;SDS011;8679;50.842;4.322;2022-08-19T09:30:08;3.33;;;1.60;;
17127;SDS011;8679;50.842;4.322;2022-08-19T09:32:37;2.03;;;1.45;;
17127;SDS011;8679;50.842;4.322;2022-08-19T09:35:04;2.53;;;1.63;;
17127;SDS011;8679;50.842;4.322;2022-08-19T09:37:31;2.35;;;1.08;;
17127;SDS011;8679;50.842;4.322;2022-08-19T09:39:57;2.10;;;1.48;;
17127;SDS011;8679;50.842;4.322;2022-08-19T09:42:22;2.47;;;1.40;;
17127;SDS011;8679;50.842;4.322;2022-08-19T09:44:48;2.45;;;1.20;;
17127;SDS011;8679;50.842;4.322;2022-08-19T09:47:14;1.48;;;1.00;;
17127;SDS011;8679;50.842;4.322;2022-08-19T09:49:40;2.55;;;1.23;;
17127;SDS011;8679;50.842;4.322;2022-08-19T09:52:08;1.63;;;1.25;;
17127;SDS011;8679;50.842;4.322;2022-08-19T09:54:35;1.33;;;1.17;;
17127;SDS011;8679;50.842;4.322;2022-08-19T09:57:01;1.40;;;1.13;;
17127;SDS011;8679;50.842;4.322;2022-08-19T09:59:28;2.67;;;1.00;;
17127;SDS011;8679;50.842;4.322;2022-08-19T10:01:54;2.00;;;1.40;;
17127;SDS011;8679;50.842;4.322;2022-08-19T10:04:20;1.55;;;1.20;;
17127;SDS011;8679;50.842;4.322;2022-08-19T10:06:47;2.22;;;1.50;;
17127;SDS011;8679;50.842;4.322;2022-08-19T10:09:15;3.47;;;1.48;;
17127;SDS011;8679;50.842;4.322;2022-08-19T10:11:43;2.30;;;1.20;;
17127;SDS011;8679;50.842;4.322;2022-08-19T10:14:14;2.92;;;1.50;;
17127;SDS011;8679;50.842;4.322;2022-08-19T10:16:41;1.98;;;1.38;;
17127;SDS011;8679;50.842;4.322;2022-08-19T10:19:08;2.80;;;1.45;;
17127;SDS011;8679;50.842;4.322;2022-08-19T10:21:34;2.35;;;1.13;;
17127;SDS011;8679;50.842;4.322;2022-08-19T10:24:02;4.32;;;1.48;;
17127;SDS011;8679;50.842;4.322;2022-08-19T10:26:31;4.03;;;1.48;;
17127;SDS011;8679;50.842;4.322;2022-08-19T10:29:02;2.60;;;1.42;;
17127;SDS011;8679;50.842;4.322;2022-08-19T10:31:31;3.28;;;1.70;;
17127;SDS011;8679;50.842;4.322;2022-08-19T10:33:58;3.28;;;2.13;;
17127;SDS011;8679;50.842;4.322;2022-08-19T10:36:26;1.85;;;1.35;;
17127;SDS011;8679;50.842;4.322;2022-08-19T10:38:58;2.78;;;1.60;;
17127;SDS011;8679;50.842;4.322;2022-08-19T10:41:30;2.78;;;1.55;;
17127;SDS011;8679;50.842;4.322;2022-08-19T10:44:01;3.10;;;2.00;;
17127;SDS011;8679;50.842;4.322;2022-08-19T10:46:33;4.20;;;1.90;;
17127;SDS011;8679;50.842;4.322;2022-08-19T10:49:03;1.92;;;1.40;;
17127;SDS011;8679;50.842;4.322;2022-08-19T10:51:30;4.10;;;1.90;;
17127;SDS011;8679;50.842;4.322;2022-08-19T10:54:15;4.70;;;1.98;;
17127;SDS011;8679;50.842;4.322;2022-08-19T10:56:41;2.17;;;1.40;;
17127;SDS011;8679;50.842;4.322;2022-08-19T10:59:29;2.88;;;1.75;;
17127;SDS011;8679;50.842;4.322;2022-08-19T11:01:58;5.07;;;2.25;;
17127;SDS011;8679;50.842;4.322;2022-08-19T11:04:25;3.22;;;1.83;;
17127;SDS011;8679;50.842;4.322;2022-08-19T11:06:52;2.85;;;1.70;;
17127;SDS011;8679;50.842;4.322;2022-08-19T11:09:19;2.78;;;1.40;;
17127;SDS011;8679;50.842;4.322;2022-08-19T11:11:51;3.88;;;1.60;;
17127;SDS011;8679;50.842;4.322;2022-08-19T11:14:17;2.88;;;1.63;;
17127;SDS011;8679;50.842;4.322;2022-08-19T11:16:45;2.05;;;1.58;;
17127;SDS011;8679;50.842;4.322;2022-08-19T11:19:12;2.95;;;1.52;;
17127;SDS011;8679;50.842;4.322;2022-08-19T11:21:42;4.05;;;2.10;;
17127;SDS011;8679;50.842;4.322;2022-08-19T11:24:10;5.03;;;2.65;;
17127;SDS011;8679;50.842;4.322;2022-08-19T11:26:39;3.20;;;2.20;;
17127;SDS011;8679;50.842;4.322;2022-08-19T11:29:06;3.25;;;2.17;;
17127;SDS011;8679;50.842;4.322;2022-08-19T11:31:36;3.20;;;2.45;;
17127;SDS011;8679;50.842;4.322;2022-08-19T11:34:04;3.85;;;2.28;;
17127;SDS011;8679;50.842;4.322;2022-08-19T11:36:32;3.22;;;2.20;;
17127;SDS011;8679;50.842;4.322;2022-08-19T11:38:59;4.32;;;2.08;;
17127;SDS011;8679;50.842;4.322;2022-08-19T11:41:25;3.53;;;2.08;;
17127;SDS011;8679;50.842;4.322;2022-08-19T11:43:51;4.40;;;2.47;;
17127;SDS011;8679;50.842;4.322;2022-08-19T11:46:20;4.93;;;2.47;;
17127;SDS011;8679;50.842;4.322;2022-08-19T11:48:47;5.22;;;2.13;;
17127;SDS011;8679;50.842;4.322;2022-08-19T11:51:19;4.38;;;1.95;;
17127;SDS011;8679;50.842;4.322;2022-08-19T11:53:47;3.80;;;2.15;;
17127;SDS011;8679;50.842;4.322;2022-08-19T11:56:14;2.47;;;1.73;;
17127;SDS011;8679;50.842;4.322;2022-08-19T11:58:40;2.95;;;1.70;;
17127;SDS011;8679;50.842;4.322;2022-08-19T12:01:09;3.08;;;1.65;;
17127;SDS011;8679;50.842;4.322;2022-08-19T12:03:36;2.30;;;1.50;;
17127;SDS011;8679;50.842;4.322;2022-08-19T12:06:14;2.45;;;1.55;;
17127;SDS011;8679;50.842;4.322;2022-08-19T12:08:42;3.60;;;2.17;;
17127;SDS011;8679;50.842;4.322;2022-08-19T12:11:11;2.55;;;1.60;;
17127;SDS011;8679;50.842;4.322;2022-08-19T12:13:38;1.80;;;1.30;;
17127;SDS011;8679;50.842;4.322;2022-08-19T12:16:10;1.75;;;1.23;;
17127;SDS011;8679;50.842;4.322;2022-08-19T12:18:40;2.70;;;1.40;;
17127;SDS011;8679;50.842;4.322;2022-08-19T12:21:11;1.98;;;1.27;;
17127;SDS011;8679;50.842;4.322;2022-08-19T12:23:41;4.07;;;1.13;;
17127;SDS011;8679;50.842;4.322;2022-08-19T12:26:08;1.63;;;1.00;;
17127;SDS011;8679;50.842;4.322;2022-08-19T12:28:34;1.70;;;0.90;;
17127;SDS011;8679;50.842;4.322;2022-08-19T12:31:01;1.48;;;1.05;;
17127;SDS011;8679;50.842;4.322;2022-08-19T12:33:26;1.40;;;1.10;;
17127;SDS011;8679;50.842;4.322;2022-08-19T12:35:53;1.80;;;1.02;;
17127;SDS011;8679;50.842;4.322;2022-08-19T12:38:20;1.20;;;1.00;;
17127;SDS011;8679;50.842;4.322;2022-08-19T12:40:49;1.60;;;1.20;;
17127;SDS011;8679;50.842;4.322;2022-08-19T12:43:16;4.50;;;1.00;;
17127;SDS011;8679;50.842;4.322;2022-08-19T12:45:42;1.63;;;1.02;;
17127;SDS011;8679;50.842;4.322;2022-08-19T12:48:09;1.20;;;0.73;;
17127;SDS011;8679;50.842;4.322;2022-08-19T12:50:34;1.08;;;0.98;;
17127;SDS011;8679;50.842;4.322;2022-08-19T12:53:00;1.30;;;0.82;;
17127;SDS011;8679;50.842;4.322;2022-08-19T12:55:26;1.02;;;0.93;;
17127;SDS011;8679;50.842;4.322;2022-08-19T12:57:53;1.20;;;0.90;;
17127;SDS011;8679;50.842;4.322;2022-08-19T13:00:20;0.98;;;0.65;;
17127;SDS011;8679;50.842;4.322;2022-08-19T13:02:48;0.95;;;0.85;;
17127;SDS011;8679;50.842;4.322;2022-08-19T13:05:25;1.42;;;1.00;;
17127;SDS011;8679;50.842;4.322;2022-08-19T13:07:54;1.77;;;0.82;;
17127;SDS011;8679;50.842;4.322;2022-08-19T13:10:22;1.40;;;0.82;;
17127;SDS011;8679;50.842;4.322;2022-08-19T13:12:52;0.95;;;0.70;;
17127;SDS011;8679;50.842;4.322;2022-08-19T13:15:19;1.17;;;0.75;;
17127;SDS011;8679;50.842;4.322;2022-08-19T13:17:47;1.27;;;1.17;;
17127;SDS011;8679;50.842;4.322;2022-08-19T13:20:15;1.30;;;1.20;;
17127;SDS011;8679;50.842;4.322;2022-08-19T13:22:42;1.20;;;0.98;;
17127;SDS011;8679;50.842;4.322;2022-08-19T13:25:09;1.05;;;0.73;;
17127;SDS011;8679;50.842;4.322;2022-08-19T13:27:36;1.75;;;1.10;;
17127;SDS011;8679;50.842;4.322;2022-08-19T13:30:03;1.20;;;0.85;;
17127;SDS011;8679;50.842;4.322;2022-08-19T13:32:49;1.13;;;0.73;;
17127;SDS011;8679;50.842;4.322;2022-08-19T13:35:33;1.48;;;0.88;;
17127;SDS011;8679;50.842;4.322;2022-08-19T13:37:59;1.27;;;0.95;;
17127;SDS011;8679;50.842;4.322;2022-08-19T13:40:29;1.33;;;1.05;;
17127;SDS011;8679;50.842;4.322;2022-08-19T13:42:56;1.55;;;1.00;;
17127;SDS011;8679;50.842;4.322;2022-08-19T13:45:23;1.23;;;0.85;;
17127;SDS011;8679;50.842;4.322;2022-08-19T13:47:50;1.60;;;0.82;;
17127;SDS011;8679;50.842;4.322;2022-08-19T13:50:18;1.15;;;0.80;;
17127;SDS011;8679;50.842;4.322;2022-08-19T13:52:46;1.10;;;0.70;;
17127;SDS011;8679;50.842;4.322;2022-08-19T13:55:14;0.80;;;0.60;;
17127;SDS011;8679;50.842;4.322;2022-08-19T13:57:41;1.00;;;0.80;;
17127;SDS011;8679;50.842;4.322;2022-08-19T14:00:08;1.17;;;0.90;;
17127;SDS011;8679;50.842;4.322;2022-08-19T14:02:37;0.70;;;0.70;;
17127;SDS011;8679;50.842;4.322;2022-08-19T14:05:04;1.00;;;0.80;;
17127;SDS011;8679;50.842;4.322;2022-08-19T14:07:30;0.85;;;0.60;;
17127;SDS011;8679;50.842;4.322;2022-08-19T14:09:58;0.80;;;0.60;;
17127;SDS011;8679;50.842;4.322;2022-08-19T14:12:23;1.15;;;0.75;;
17127;SDS011;8679;50.842;4.322;2022-08-19T14:14:49;0.95;;;0.57;;
17127;SDS011;8679;50.842;4.322;2022-08-19T14:17:15;0.60;;;0.60;;
17127;SDS011;8679;50.842;4.322;2022-08-19T14:19:41;1.60;;;0.80;;
17127;SDS011;8679;50.842;4.322;2022-08-19T14:22:08;0.63;;;0.52;;
17127;SDS011;8679;50.842;4.322;2022-08-19T14:24:34;0.75;;;0.60;;
17127;SDS011;8679;50.842;4.322;2022-08-19T14:27:04;1.00;;;0.70;;
17127;SDS011;8679;50.842;4.322;2022-08-19T14:29:30;0.85;;;0.70;;
17127;SDS011;8679;50.842;4.322;2022-08-19T14:31:56;0.98;;;0.80;;
17127;SDS011;8679;50.842;4.322;2022-08-19T14:34:24;1.17;;;0.85;;
17127;SDS011;8679;50.842;4.322;2022-08-19T14:36:51;1.00;;;0.90;;
17127;SDS011;8679;50.842;4.322;2022-08-19T14:39:17;1.42;;;0.70;;
17127;SDS011;8679;50.842;4.322;2022-08-19T14:41:43;0.90;;;0.75;;
17127;SDS011;8679;50.842;4.322;2022-08-19T14:44:10;1.13;;;0.80;;
17127;SDS011;8679;50.842;4.322;2022-08-19T14:46:37;2.10;;;0.85;;
17127;SDS011;8679;50.842;4.322;2022-08-19T14:49:04;0.50;;;0.50;;
17127;SDS011;8679;50.842;4.322;2022-08-19T14:51:30;0.40;;;0.40;;
17127;SDS011;8679;50.842;4.322;2022-08-19T14:53:56;0.63;;;0.50;;
17127;SDS011;8679;50.842;4.322;2022-08-19T14:56:23;0.30;;;0.30;;
17127;SDS011;8679;50.842;4.322;2022-08-19T14:58:51;0.82;;;0.65;;
17127;SDS011;8679;50.842;4.322;2022-08-19T15:01:18;0.40;;;0.40;;
17127;SDS011;8679;50.842;4.322;2022-08-19T15:03:45;0.40;;;0.40;;
17127;SDS011;8679;50.842;4.322;2022-08-19T15:06:11;0.95;;;0.60;;
17127;SDS011;8679;50.842;4.322;2022-08-19T15:08:38;0.22;;;0.22;;
17127;SDS011;8679;50.842;4.322;2022-08-19T15:11:09;1.52;;;0.50;;
17127;SDS011;8679;50.842;4.322;2022-08-19T15:13:36;0.50;;;0.40;;
17127;SDS011;8679;50.842;4.322;2022-08-19T15:16:02;0.50;;;0.40;;
17127;SDS011;8679;50.842;4.322;2022-08-19T15:18:28;1.30;;;0.90;;
17127;SDS011;8679;50.842;4.322;2022-08-19T15:20:54;0.60;;;0.60;;
17127;SDS011;8679;50.842;4.322;2022-08-19T15:23:20;0.90;;;0.73;;
17127;SDS011;8679;50.842;4.322;2022-08-19T15:25:46;0.70;;;0.60;;